createdAt,value
2019-05-22T00:04:53.670Z,99.80
2019-05-22T00:10:35.542Z,99.80
2019-05-22T00:15:41.078Z,99.60
2019-05-22T00:20:47.484Z,99.70
2019-05-22T00:25:54.149Z,99.70
2019-05-22T00:31:01.613Z,99.70
2019-05-22T00:36:06.564Z,99.90
2019-05-22T00:41:12.198Z,99.80
2019-05-22T00:46:18.668Z,99.90
2019-05-22T00:52:02.173Z,99.90
2019-05-22T00:57:12.228Z,99.90
2019-05-22T01:02:18.753Z,99.60
2019-05-22T01:07:25.255Z,99.20
2019-05-22T01:12:30.960Z,99.10
2019-05-22T01:17:37.073Z,99.20
2019-05-22T01:22:45.417Z,99.20
2019-05-22T01:27:49.946Z,99.10
2019-05-22T01:33:34.069Z,99.10
2019-05-22T01:38:42.139Z,98.70
2019-05-22T01:43:48.830Z,98.90
2019-05-22T01:49:35.562Z,99.30
2019-05-22T01:54:41.219Z,99.60
2019-05-22T01:59:47.554Z,99.90
2019-05-22T02:04:53.379Z,99.90
2019-05-22T02:10:38.575Z,99.90
2019-05-22T02:15:46.962Z,99.90
2019-05-22T02:21:28.642Z,99.90
2019-05-22T02:26:34.696Z,99.90
2019-05-22T02:32:18.166Z,99.90
2019-05-22T02:37:27.206Z,99.90
2019-05-22T02:43:09.343Z,99.90
2019-05-22T02:48:18.830Z,99.90
2019-05-22T02:53:43.549Z,99.90
2019-05-22T02:58:49.429Z,99.90
2019-05-22T03:03:55.097Z,99.90
2019-05-22T03:09:02.956Z,99.90
2019-05-22T03:14:45.095Z,99.90
2019-05-22T03:19:51.246Z,99.90
2019-05-22T03:25:33.618Z,99.90
2019-05-22T03:30:41.537Z,99.90
2019-05-22T03:36:24.958Z,99.90
2019-05-22T03:41:30.343Z,99.90
2019-05-22T03:47:12.138Z,99.90
2019-05-22T03:52:17.120Z,99.90
2019-05-22T03:57:23.846Z,99.90
2019-05-22T04:02:28.978Z,99.90
2019-05-22T04:08:11.410Z,99.90
2019-05-22T04:13:16.636Z,99.90
2019-05-22T04:18:22.995Z,99.90
2019-05-22T04:23:28.181Z,99.90
2019-05-22T04:29:11.161Z,99.90
2019-05-22T04:34:17.040Z,99.90
2019-05-22T04:39:59.812Z,99.90
2019-05-22T04:45:09.183Z,99.90
2019-05-22T04:50:15.724Z,99.90
2019-05-22T04:55:21.120Z,99.90
2019-05-22T05:00:28.206Z,99.90
2019-05-22T05:05:38.968Z,99.90
2019-05-22T05:10:47.341Z,99.90
2019-05-22T05:15:53.330Z,99.90
2019-05-22T05:20:58.289Z,99.90
2019-05-22T05:26:03.185Z,99.90
2019-05-22T05:31:08.054Z,99.90
2019-05-22T05:36:12.848Z,99.90
2019-05-22T05:41:19.495Z,99.90
2019-05-22T05:46:24.553Z,99.90
2019-05-22T05:52:07.508Z,99.90
2019-05-22T05:57:16.300Z,99.90
2019-05-22T06:02:59.643Z,99.70
2019-05-22T06:08:05.072Z,99.90
2019-05-22T06:13:47.417Z,99.30
2019-05-22T06:18:56.810Z,99.70
2019-05-22T06:24:37.105Z,99.90
2019-05-22T06:29:45.528Z,98.80
2019-05-22T06:34:50.615Z,96.80
2019-05-22T06:40:05.866Z,96.30
2019-05-22T06:45:12.737Z,96.50
2019-05-22T06:50:18.589Z,94.10
2019-05-22T06:56:02.369Z,94.80
2019-05-22T07:01:07.856Z,92.70
2019-05-22T07:06:49.237Z,93.90
2019-05-22T07:11:55.174Z,94.70
2019-05-22T07:17:38.028Z,94.50
2019-05-22T07:22:44.236Z,93.30
2019-05-22T07:27:50.161Z,92.70
2019-05-22T07:32:55.777Z,92.50
2019-05-22T07:38:37.310Z,92.20
2019-05-22T07:43:42.370Z,90.70
2019-05-22T07:48:48.567Z,87.40
2019-05-22T07:53:53.645Z,86.50
2019-05-22T07:59:02.079Z,84.10
2019-05-22T08:04:07.177Z,81.90
2019-05-22T08:09:48.738Z,79.50
2019-05-22T08:14:58.101Z,76.50
2019-05-22T08:20:06.676Z,74.20
2019-05-22T08:25:33.381Z,75.10
2019-05-22T08:30:42.730Z,76.90
2019-05-22T08:35:48.842Z,78.10
2019-05-22T08:40:55.475Z,81.60
2019-05-22T08:46:02.314Z,79.40
2019-05-22T08:51:10.727Z,75.20
2019-05-22T08:56:52.774Z,69.40
2019-05-22T09:01:58.054Z,68.40
2019-05-22T09:07:03.710Z,70.50
2019-05-22T09:12:11.462Z,65.00
2019-05-22T09:17:18.278Z,65.50
2019-05-22T09:22:39.560Z,73.50
2019-05-22T09:27:32.701Z,78.40
2019-05-22T09:32:41.515Z,80.40
2019-05-22T09:37:46.571Z,79.00
2019-05-22T09:42:51.967Z,79.00
2019-05-22T09:47:57.367Z,79.10
2019-05-22T09:53:02.836Z,79.90
2019-05-22T09:58:08.703Z,79.30
2019-05-22T10:03:13.858Z,78.20
2019-05-22T10:08:19.130Z,76.70
2019-05-22T10:13:28.960Z,73.60
2019-05-22T10:18:32.570Z,71.10
2019-05-22T10:24:14.234Z,72.70
2019-05-22T10:29:19.583Z,70.60
2019-05-22T10:34:25.162Z,58.10
2019-05-22T10:39:30.972Z,53.40
2019-05-22T10:44:36.571Z,55.40
2019-05-22T10:49:42.071Z,54.40
2019-05-22T10:54:47.017Z,56.20
2019-05-22T10:59:52.349Z,50.10
2019-05-22T11:04:57.676Z,45.60
2019-05-22T11:10:04.510Z,48.40
2019-05-22T11:15:10.261Z,53.60
2019-05-22T11:20:15.630Z,57.50
2019-05-22T11:25:21.596Z,55.60
2019-05-22T11:30:30.659Z,56.80
2019-05-22T11:36:13.156Z,56.60
2019-05-22T11:41:22.187Z,57.10
2019-05-22T11:46:30.091Z,55.30
2019-05-22T11:51:35.330Z,59.10
2019-05-22T11:56:40.987Z,60.70
2019-05-22T12:01:48.112Z,61.10
2019-05-22T12:06:54.399Z,53.60
2019-05-22T12:11:59.926Z,54.40
2019-05-22T12:17:06.492Z,55.60
2019-05-22T12:22:14.081Z,56.50
2019-05-22T12:27:22.103Z,59.30
2019-05-22T12:32:27.689Z,60.10
2019-05-22T12:37:35.833Z,61.30
2019-05-22T12:42:43.497Z,62.30
2019-05-22T12:47:48.676Z,61.70
2019-05-22T12:52:54.979Z,72.10
2019-05-22T12:58:05.512Z,76.20
2019-05-22T13:03:13.223Z,77.80
2019-05-22T13:08:28.997Z,80.50
2019-05-22T13:13:42.198Z,78.00
2019-05-22T13:18:49.218Z,78.00
2019-05-22T13:23:55.250Z,72.00
2019-05-22T13:29:05.800Z,71.10
2019-05-22T13:34:15.785Z,73.80
2019-05-22T13:39:22.314Z,73.80
2019-05-22T13:44:32.032Z,68.90
2019-05-22T13:49:42.337Z,64.80
2019-05-22T13:54:56.493Z,63.10
2019-05-22T14:00:03.785Z,62.60
2019-05-22T14:05:47.057Z,73.60
2019-05-22T14:10:53.365Z,85.30
2019-05-22T14:15:58.547Z,93.80
2019-05-22T14:21:03.562Z,95.60
2019-05-22T14:26:08.727Z,96.40
2019-05-22T14:31:13.944Z,99.90
2019-05-22T14:36:19.229Z,99.90
2019-05-22T14:41:25.383Z,99.00
2019-05-22T14:46:32.619Z,98.60
2019-05-22T14:51:40.319Z,98.60
2019-05-22T14:56:47.294Z,96.20
2019-05-22T15:01:53.067Z,97.10
2019-05-22T15:06:58.648Z,98.40
2019-05-22T15:12:08.973Z,98.70
2019-05-22T15:17:31.125Z,99.50
2019-05-22T15:22:22.861Z,99.90
2019-05-22T15:28:07.153Z,99.90
2019-05-22T15:33:12.526Z,99.90
2019-05-22T15:38:18.574Z,99.90
2019-05-22T15:43:25.740Z,99.90
2019-05-22T15:48:33.241Z,99.90
2019-05-22T15:53:39.624Z,99.90
2019-05-22T15:58:45.856Z,99.90
2019-05-22T16:03:52.499Z,99.90
2019-05-22T16:08:57.864Z,99.90
2019-05-22T16:14:03.998Z,99.90
2019-05-22T16:19:10.743Z,99.90
2019-05-22T16:24:16.670Z,99.90
2019-05-22T16:29:59.368Z,99.90
2019-05-22T16:35:05.908Z,99.90
2019-05-22T16:40:11.493Z,99.90
2019-05-22T16:45:50.996Z,99.90
2019-05-22T16:51:02.758Z,99.90
2019-05-22T16:56:47.541Z,99.90
2019-05-22T17:01:59.234Z,99.90
2019-05-22T17:06:59.918Z,99.90
2019-05-22T17:12:07.983Z,99.90
2019-05-22T17:17:49.863Z,99.90
2019-05-22T17:22:55.268Z,99.90
2019-05-22T17:28:00.513Z,99.90
2019-05-22T17:33:07.484Z,99.90
2019-05-22T17:38:12.564Z,99.90
2019-05-22T17:43:18.725Z,99.90
2019-05-22T17:48:24.109Z,99.90
2019-05-22T17:53:29.361Z,99.90
2019-05-22T17:59:10.800Z,99.90
2019-05-22T18:04:16.443Z,99.90
2019-05-22T18:09:22.734Z,99.90
2019-05-22T18:14:33.449Z,99.90
2019-05-22T18:20:16.205Z,99.90
2019-05-22T18:25:23.763Z,99.90
2019-05-22T18:31:06.614Z,99.90
2019-05-22T18:36:17.993Z,99.90
2019-05-22T18:41:59.566Z,99.90
2019-05-22T18:47:05.240Z,99.90
2019-05-22T18:52:10.785Z,99.90
2019-05-22T18:57:52.942Z,99.90
2019-05-22T19:02:58.078Z,99.90
2019-05-22T19:08:11.549Z,99.90
2019-05-22T19:13:18.598Z,99.90
2019-05-22T19:19:00.443Z,99.90
2019-05-22T19:24:05.691Z,99.90
2019-05-22T19:29:47.524Z,99.90
2019-05-22T19:34:52.902Z,99.90
2019-05-22T19:40:36.123Z,99.90
2019-05-22T19:45:41.567Z,99.90
2019-05-22T19:50:47.326Z,99.90
2019-05-22T19:55:52.743Z,99.90
2019-05-22T20:00:59.460Z,99.90
2019-05-22T20:06:05.699Z,99.90
2019-05-22T20:11:51.229Z,99.90
2019-05-22T20:16:56.259Z,99.90
2019-05-22T20:22:05.173Z,99.90
2019-05-22T20:27:10.912Z,99.90
2019-05-22T20:32:58.012Z,99.90
2019-05-22T20:38:40.265Z,99.90
2019-05-22T20:43:48.884Z,99.90
2019-05-22T20:48:54.293Z,99.90
2019-05-22T20:54:00.099Z,99.90
2019-05-22T20:59:13.164Z,99.90
2019-05-22T21:04:19.802Z,99.90
2019-05-22T21:10:06.408Z,99.90
2019-05-22T21:15:15.093Z,99.90
2019-05-22T21:21:02.444Z,99.90
2019-05-22T21:26:08.994Z,99.90
2019-05-22T21:31:18.561Z,99.90
2019-05-22T21:37:02.578Z,99.90
2019-05-22T21:42:09.842Z,99.90
2019-05-22T21:47:52.815Z,99.90
2019-05-22T21:52:58.435Z,99.90
2019-05-22T21:58:41.278Z,99.90
2019-05-22T22:03:48.590Z,99.90
2019-05-22T22:09:34.386Z,99.90
2019-05-22T22:14:40.182Z,99.90
2019-05-22T22:20:22.331Z,99.90
2019-05-22T22:25:34.087Z,99.90
2019-05-22T22:31:21.410Z,99.90
2019-05-22T22:36:26.551Z,99.90
2019-05-22T22:42:10.081Z,99.90
2019-05-22T22:47:16.639Z,99.90
2019-05-22T22:52:22.606Z,99.90
2019-05-22T22:57:27.765Z,99.90
2019-05-22T23:03:11.227Z,99.90
2019-05-22T23:08:21.145Z,99.90
2019-05-22T23:14:06.511Z,99.90
2019-05-22T23:19:11.529Z,99.90
2019-05-22T23:24:16.687Z,99.90
2019-05-22T23:29:22.796Z,99.90
2019-05-22T23:35:05.540Z,99.90
2019-05-22T23:40:11.377Z,99.90
2019-05-22T23:45:19.468Z,99.90
2019-05-22T23:50:24.512Z,99.90
2019-05-22T23:55:30.847Z,99.90
